createdAt,value
2023-10-19T00:02:21.016Z,18.93
2023-10-19T00:04:50.800Z,19.13
2023-10-19T00:07:19.764Z,17.63
2023-10-19T00:09:49.373Z,17.73
2023-10-19T00:12:23.296Z,17.13
2023-10-19T00:14:50.823Z,19.13
2023-10-19T00:17:22.177Z,17.93
2023-10-19T00:19:59.193Z,17.87
2023-10-19T00:22:32.168Z,18.17
2023-10-19T00:25:00.343Z,17.53
2023-10-19T00:27:30.169Z,18.63
2023-10-19T00:30:07.275Z,18.33
2023-10-19T00:32:39.894Z,17.50
2023-10-19T00:35:27.936Z,18.43
2023-10-19T00:38:19.012Z,18.20
2023-10-19T00:40:54.227Z,19.30
2023-10-19T00:43:34.058Z,18.07
2023-10-19T00:46:08.340Z,17.73
2023-10-19T00:48:37.492Z,18.00
2023-10-19T00:51:10.686Z,18.93
2023-10-19T00:53:41.298Z,19.37
2023-10-19T00:56:12.004Z,19.30
2023-10-19T00:58:42.700Z,19.23
2023-10-19T01:01:11.668Z,19.23
2023-10-19T01:03:40.651Z,19.10
2023-10-19T01:06:13.357Z,19.37
2023-10-19T01:08:45.720Z,19.13
2023-10-19T01:11:16.764Z,18.30
2023-10-19T01:13:47.847Z,18.10
2023-10-19T01:16:22.347Z,19.77
2023-10-19T01:18:55.777Z,19.73
2023-10-19T01:21:37.402Z,17.90
2023-10-19T01:24:13.424Z,18.57
2023-10-19T01:26:42.217Z,19.30
2023-10-19T01:29:14.913Z,20.33
2023-10-19T01:31:57.295Z,19.13
2023-10-19T01:34:28.034Z,19.00
2023-10-19T01:36:57.292Z,19.53
2023-10-19T01:39:26.808Z,18.47
2023-10-19T01:41:55.156Z,19.53
2023-10-19T01:44:22.675Z,20.23
2023-10-19T01:46:51.051Z,18.87
2023-10-19T01:49:27.368Z,18.30
2023-10-19T01:51:56.836Z,18.63
2023-10-19T01:54:26.331Z,20.23
2023-10-19T01:56:57.761Z,19.37
2023-10-19T01:59:28.610Z,19.30
2023-10-19T02:01:59.075Z,19.97
2023-10-19T02:04:27.339Z,18.63
2023-10-19T02:07:01.562Z,21.10
2023-10-19T02:09:33.703Z,17.83
2023-10-19T02:12:05.793Z,19.57
2023-10-19T02:14:35.901Z,19.57
2023-10-19T02:17:05.240Z,18.27
2023-10-19T02:19:34.190Z,19.17
2023-10-19T02:22:05.434Z,19.60
2023-10-19T02:24:35.330Z,18.80
2023-10-19T02:27:02.755Z,19.27
2023-10-19T02:29:32.232Z,19.63
2023-10-19T02:32:05.121Z,19.67
2023-10-19T02:34:35.942Z,19.07
2023-10-19T02:37:03.637Z,18.80
2023-10-19T02:39:32.415Z,19.77
2023-10-19T02:42:04.149Z,20.10
2023-10-19T02:44:32.938Z,18.30
2023-10-19T02:47:01.532Z,18.97
2023-10-19T02:49:32.206Z,20.47
2023-10-19T02:52:05.044Z,19.90
2023-10-19T02:54:36.319Z,21.67
2023-10-19T02:57:09.009Z,21.27
2023-10-19T02:59:37.222Z,21.10
2023-10-19T03:02:17.566Z,22.87
2023-10-19T03:04:46.546Z,22.40
2023-10-19T03:07:16.892Z,21.33
2023-10-19T03:09:50.350Z,21.27
2023-10-19T03:12:21.051Z,21.97
2023-10-19T03:14:49.497Z,21.27
2023-10-19T03:17:18.647Z,21.43
2023-10-19T03:19:47.360Z,22.40
2023-10-19T03:22:16.302Z,22.67
2023-10-19T03:24:44.895Z,21.07
2023-10-19T03:27:16.489Z,21.30
2023-10-19T03:29:49.370Z,21.40
2023-10-19T03:32:20.181Z,21.17
2023-10-19T03:34:50.910Z,21.03
2023-10-19T03:37:21.444Z,21.80
2023-10-19T03:39:52.663Z,22.17
2023-10-19T03:42:22.305Z,21.77
2023-10-19T03:44:55.016Z,19.87
2023-10-19T03:47:29.238Z,21.30
2023-10-19T03:50:01.131Z,20.50
2023-10-19T03:52:31.775Z,21.40
2023-10-19T03:55:01.907Z,20.57
2023-10-19T03:57:31.701Z,20.13
2023-10-19T04:00:01.733Z,21.20
2023-10-19T04:02:39.645Z,21.17
2023-10-19T04:05:11.571Z,19.60
2023-10-19T04:07:40.304Z,20.63
2023-10-19T04:10:30.979Z,18.50
2023-10-19T04:13:01.737Z,19.20
2023-10-19T04:15:35.014Z,19.07
2023-10-19T04:18:09.739Z,18.67
2023-10-19T04:20:55.696Z,20.40
2023-10-19T04:23:28.399Z,21.10
2023-10-19T04:26:05.069Z,19.90
2023-10-19T04:28:39.638Z,20.77
2023-10-19T04:31:14.850Z,20.33
2023-10-19T04:33:47.073Z,21.87
2023-10-19T04:36:22.558Z,21.30
2023-10-19T04:38:51.013Z,20.93
2023-10-19T04:41:19.758Z,21.43
2023-10-19T04:43:51.428Z,22.00
2023-10-19T04:46:21.602Z,21.77
2023-10-19T04:48:50.800Z,21.27
2023-10-19T04:51:19.569Z,21.23
2023-10-19T04:53:47.968Z,20.33
2023-10-19T04:56:16.712Z,21.87
2023-10-19T04:58:45.447Z,22.90
2023-10-19T05:01:14.065Z,22.70
2023-10-19T05:03:44.304Z,22.67
2023-10-19T05:06:13.743Z,23.23
2023-10-19T05:08:42.132Z,22.47
2023-10-19T05:11:10.561Z,23.20
2023-10-19T05:13:40.138Z,22.53
2023-10-19T05:16:09.861Z,22.87
2023-10-19T05:18:38.342Z,23.50
2023-10-19T05:21:08.222Z,22.40
2023-10-19T05:23:36.901Z,22.73
2023-10-19T05:26:07.923Z,22.67
2023-10-19T05:28:36.585Z,21.87
2023-10-19T05:31:05.520Z,21.97
2023-10-19T05:33:34.274Z,22.40
2023-10-19T05:36:03.848Z,22.23
2023-10-19T05:38:34.157Z,22.07
2023-10-19T05:41:02.742Z,23.83
2023-10-19T05:43:31.736Z,21.33
2023-10-19T05:46:00.299Z,22.07
2023-10-19T05:48:28.850Z,21.30
2023-10-19T05:50:57.743Z,22.03
2023-10-19T05:53:26.128Z,22.07
2023-10-19T05:55:55.864Z,21.87
2023-10-19T05:58:24.662Z,22.13
2023-10-19T06:00:53.653Z,24.43
2023-10-19T06:03:22.158Z,23.43
2023-10-19T06:05:50.581Z,22.97
2023-10-19T06:08:19.016Z,24.07
2023-10-19T06:10:57.576Z,23.60
2023-10-19T06:13:26.245Z,22.07
2023-10-19T06:15:54.785Z,25.23
2023-10-19T06:18:23.744Z,23.40
2023-10-19T06:20:56.234Z,24.73
2023-10-19T06:23:24.600Z,23.23
2023-10-19T06:25:53.560Z,23.43
2023-10-19T06:28:23.465Z,25.37
2023-10-19T06:30:52.125Z,24.27
2023-10-19T06:33:20.927Z,24.43
2023-10-19T06:35:49.346Z,23.90
2023-10-19T06:38:19.781Z,23.67
2023-10-19T06:40:48.781Z,25.33
2023-10-19T06:43:17.976Z,24.33
2023-10-19T06:45:48.374Z,25.63
2023-10-19T06:48:16.961Z,25.40
2023-10-19T06:50:49.672Z,24.87
2023-10-19T06:53:19.866Z,23.63
2023-10-19T06:55:49.058Z,23.10
2023-10-19T06:58:20.964Z,23.93
2023-10-19T07:00:57.726Z,23.27
2023-10-19T07:03:27.060Z,23.90
2023-10-19T07:05:55.711Z,21.70
2023-10-19T07:08:24.986Z,23.83
2023-10-19T07:10:54.807Z,23.57
2023-10-19T07:13:23.946Z,23.30
2023-10-19T07:15:53.924Z,23.23
2023-10-19T07:18:23.008Z,23.43
2023-10-19T07:20:51.841Z,23.00
2023-10-19T07:23:23.369Z,22.40
2023-10-19T07:25:56.039Z,22.10
2023-10-19T07:28:27.481Z,22.90
2023-10-19T07:30:58.299Z,22.47
2023-10-19T07:33:27.673Z,22.30
2023-10-19T07:35:56.749Z,21.13
2023-10-19T07:38:26.760Z,22.80
2023-10-19T07:40:55.421Z,21.47
2023-10-19T07:43:24.833Z,21.87
2023-10-19T07:45:54.527Z,22.37
2023-10-19T07:48:26.069Z,20.67
2023-10-19T07:50:55.549Z,21.35
2023-10-19T07:53:25.852Z,22.10
2023-10-19T07:55:55.279Z,20.98
2023-10-19T07:58:23.650Z,21.25
2023-10-19T08:00:53.667Z,21.27
2023-10-19T08:03:23.574Z,21.02
2023-10-19T08:05:52.103Z,20.58
2023-10-19T08:08:20.490Z,21.13
2023-10-19T08:10:49.352Z,21.33
2023-10-19T08:13:18.154Z,21.17
2023-10-19T08:15:47.212Z,18.92
2023-10-19T08:18:16.171Z,20.23
2023-10-19T08:20:46.744Z,19.95
2023-10-19T08:23:17.758Z,19.67
2023-10-19T08:25:56.189Z,18.33
2023-10-19T08:28:25.855Z,19.30
2023-10-19T08:31:01.637Z,19.95
2023-10-19T08:33:34.755Z,20.85
2023-10-19T08:36:05.282Z,20.33
2023-10-19T08:38:34.534Z,21.52
2023-10-19T08:41:04.593Z,19.10
2023-10-19T08:43:35.071Z,17.55
2023-10-19T08:46:05.026Z,18.30
2023-10-19T08:48:37.845Z,17.45
2023-10-19T08:51:12.924Z,18.67
2023-10-19T08:53:41.933Z,20.73
2023-10-19T08:56:13.285Z,19.25
2023-10-19T08:58:42.632Z,19.67
2023-10-19T09:01:11.357Z,20.48
2023-10-19T09:03:41.914Z,18.45
2023-10-19T09:06:15.873Z,19.73
2023-10-19T09:08:48.065Z,18.83
2023-10-19T09:11:20.628Z,20.95
2023-10-19T09:13:53.199Z,19.52
2023-10-19T09:16:23.745Z,18.52
2023-10-19T09:18:53.747Z,19.77
2023-10-19T09:21:26.289Z,19.75
2023-10-19T09:23:57.013Z,20.35
2023-10-19T09:26:26.714Z,20.55
2023-10-19T09:28:56.283Z,19.10
2023-10-19T09:31:26.096Z,19.67
2023-10-19T09:33:55.593Z,19.15
2023-10-19T09:36:31.147Z,21.95
2023-10-19T09:39:00.071Z,20.25
2023-10-19T09:41:30.564Z,22.75
2023-10-19T09:44:07.722Z,21.38
2023-10-19T09:46:41.320Z,23.25
2023-10-19T09:49:13.111Z,24.63
2023-10-19T09:52:02.477Z,23.92
2023-10-19T09:54:50.630Z,23.83
2023-10-19T09:57:30.025Z,24.40
2023-10-19T10:00:13.096Z,26.58
2023-10-19T10:02:47.166Z,26.83
2023-10-19T10:05:50.105Z,26.50
2023-10-19T10:08:38.470Z,26.17
2023-10-19T10:11:23.400Z,28.50
2023-10-19T10:13:53.484Z,27.27
2023-10-19T10:16:26.283Z,30.77
2023-10-19T10:19:01.995Z,32.13
2023-10-19T10:21:31.970Z,31.58
2023-10-19T10:24:05.418Z,33.55
2023-10-19T10:27:01.261Z,32.80
2023-10-19T10:29:30.328Z,31.42
2023-10-19T10:31:59.876Z,32.40
2023-10-19T10:34:46.919Z,31.13
2023-10-19T10:37:16.343Z,31.27
2023-10-19T10:39:46.799Z,33.58
2023-10-19T10:42:16.903Z,34.08
2023-10-19T10:44:47.280Z,34.60
2023-10-19T10:47:23.078Z,33.77
2023-10-19T10:49:54.156Z,34.60
2023-10-19T10:52:29.018Z,34.47
2023-10-19T10:54:59.615Z,32.67
2023-10-19T10:57:34.444Z,32.95
2023-10-19T11:00:09.621Z,32.72
2023-10-19T11:02:41.447Z,32.42
2023-10-19T11:05:13.397Z,30.75
2023-10-19T11:07:43.257Z,29.23
2023-10-19T11:10:13.174Z,29.25
2023-10-19T11:12:41.650Z,29.95
2023-10-19T11:15:11.940Z,27.88
2023-10-19T11:17:46.929Z,28.17
2023-10-19T11:20:24.888Z,28.65
2023-10-19T11:22:57.178Z,28.05
2023-10-19T11:25:30.393Z,27.13
2023-10-19T11:28:00.652Z,25.60
2023-10-19T11:30:32.627Z,25.60
2023-10-19T11:33:02.467Z,25.67
2023-10-19T11:35:33.593Z,22.92
2023-10-19T11:38:05.233Z,23.50
2023-10-19T11:40:35.209Z,22.33
2023-10-19T11:43:04.251Z,22.17
2023-10-19T11:45:33.083Z,22.33
2023-10-19T11:48:01.665Z,21.25
2023-10-19T11:50:30.151Z,20.33
2023-10-19T11:52:58.567Z,18.83
2023-10-19T11:55:27.027Z,21.00
2023-10-19T11:57:57.209Z,20.58
2023-10-19T12:00:34.868Z,21.50
2023-10-19T12:03:03.509Z,21.23
2023-10-19T12:05:31.974Z,22.73
2023-10-19T12:08:00.433Z,23.27
2023-10-19T12:10:34.337Z,23.27
2023-10-19T12:13:05.125Z,23.50
2023-10-19T12:15:34.638Z,23.30
2023-10-19T12:18:04.043Z,23.95
2023-10-19T12:20:36.787Z,24.77
2023-10-19T12:23:06.882Z,24.17
2023-10-19T12:25:46.537Z,24.98
2023-10-19T12:28:26.045Z,25.20
2023-10-19T12:30:54.738Z,25.63
2023-10-19T12:33:23.909Z,24.95
2023-10-19T12:35:55.167Z,27.13
2023-10-19T12:38:23.689Z,26.90
2023-10-19T12:40:53.521Z,27.23
2023-10-19T12:43:24.156Z,25.95
2023-10-19T12:45:54.976Z,26.83
2023-10-19T12:48:26.672Z,27.60
2023-10-19T12:50:55.822Z,28.85
2023-10-19T12:53:26.045Z,29.95
2023-10-19T12:55:54.731Z,29.35
2023-10-19T12:58:24.739Z,30.27
2023-10-19T13:00:53.179Z,29.63
2023-10-19T13:03:23.093Z,28.90
2023-10-19T13:05:51.664Z,29.17
2023-10-19T13:08:20.469Z,27.52
2023-10-19T13:10:53.411Z,23.88
2023-10-19T13:13:25.248Z,25.15
2023-10-19T13:15:55.262Z,23.35
2023-10-19T13:18:29.301Z,25.65
2023-10-19T13:21:00.114Z,25.33
2023-10-19T13:23:29.521Z,26.02
2023-10-19T13:26:12.828Z,25.42
2023-10-19T13:28:42.341Z,22.55
2023-10-19T13:31:14.803Z,23.85
2023-10-19T13:33:47.302Z,22.95
2023-10-19T13:36:17.168Z,23.92
2023-10-19T13:38:46.290Z,23.65
2023-10-19T13:41:17.931Z,23.27
2023-10-19T13:43:46.513Z,23.10
2023-10-19T13:46:16.494Z,22.40
2023-10-19T13:48:45.481Z,22.95
2023-10-19T13:51:20.578Z,22.20
2023-10-19T13:53:51.133Z,22.85
2023-10-19T13:56:19.949Z,23.45
2023-10-19T13:58:49.107Z,20.67
2023-10-19T14:01:20.065Z,21.85
2023-10-19T14:03:48.556Z,22.00
2023-10-19T14:06:17.976Z,22.33
2023-10-19T14:08:46.457Z,21.55
2023-10-19T14:11:14.854Z,23.02
2023-10-19T14:13:43.993Z,22.33
2023-10-19T14:16:13.009Z,22.70
2023-10-19T14:18:44.840Z,20.80
2023-10-19T14:21:15.968Z,23.42
2023-10-19T14:23:45.882Z,23.83
2023-10-19T14:26:15.033Z,23.30
2023-10-19T14:28:43.959Z,22.42
2023-10-19T14:31:13.459Z,24.45
2023-10-19T14:33:44.680Z,22.98
2023-10-19T14:36:13.633Z,24.42
2023-10-19T14:38:44.536Z,26.23
2023-10-19T14:41:13.188Z,24.52
2023-10-19T14:43:41.630Z,24.50
2023-10-19T14:46:10.112Z,26.77
2023-10-19T14:48:38.521Z,23.90
2023-10-19T14:51:08.660Z,26.15
2023-10-19T14:53:37.348Z,26.15
2023-10-19T14:56:07.328Z,27.45
2023-10-19T14:58:35.808Z,27.02
2023-10-19T15:01:04.383Z,25.75
2023-10-19T15:03:32.830Z,24.70
2023-10-19T15:06:01.427Z,26.25
2023-10-19T15:08:32.937Z,26.83
2023-10-19T15:11:01.556Z,27.15
2023-10-19T15:13:30.782Z,26.83
2023-10-19T15:15:59.172Z,26.73
2023-10-19T15:18:28.504Z,25.05
2023-10-19T15:20:56.986Z,27.48
2023-10-19T15:23:27.151Z,25.45
2023-10-19T15:25:56.968Z,28.88
2023-10-19T15:28:25.392Z,27.85
2023-10-19T15:30:54.405Z,26.88
2023-10-19T15:33:23.010Z,30.25
2023-10-19T15:35:52.831Z,28.70
2023-10-19T15:38:22.865Z,27.48
2023-10-19T15:40:51.423Z,28.75
2023-10-19T15:43:23.993Z,28.17
2023-10-19T15:45:52.902Z,27.33
2023-10-19T15:48:22.591Z,27.45
2023-10-19T15:50:51.024Z,26.92
2023-10-19T15:53:19.517Z,29.08
2023-10-19T15:55:48.281Z,29.00
2023-10-19T15:58:19.475Z,29.00
2023-10-19T16:00:49.313Z,28.70
2023-10-19T16:03:18.184Z,29.23
2023-10-19T16:05:46.763Z,29.67
2023-10-19T16:08:15.268Z,30.00
2023-10-19T16:10:44.007Z,28.55
2023-10-19T16:13:14.287Z,28.00
2023-10-19T16:15:42.907Z,33.55
2023-10-19T16:18:13.309Z,30.42
2023-10-19T16:20:41.729Z,31.13
2023-10-19T16:23:10.202Z,31.98
2023-10-19T16:25:38.606Z,32.33
2023-10-19T16:28:07.420Z,31.42
2023-10-19T16:30:36.248Z,31.98
2023-10-19T16:33:05.645Z,31.35
2023-10-19T16:35:35.487Z,32.00
2023-10-19T16:38:05.255Z,32.17
2023-10-19T16:40:33.655Z,32.55
2023-10-19T16:43:03.015Z,31.50
2023-10-19T16:45:31.470Z,31.63
2023-10-19T16:47:59.968Z,32.13
2023-10-19T16:50:29.798Z,32.45
2023-10-19T16:52:59.717Z,32.47
2023-10-19T16:55:28.371Z,32.05
2023-10-19T16:58:00.249Z,32.33
2023-10-19T17:00:35.032Z,30.83
2023-10-19T17:03:03.662Z,32.15
2023-10-19T17:05:32.261Z,32.55
2023-10-19T17:08:02.301Z,32.88
2023-10-19T17:10:31.010Z,33.00
2023-10-19T17:12:59.553Z,33.90
2023-10-19T17:15:28.049Z,32.95
2023-10-19T17:17:56.497Z,34.80
2023-10-19T17:20:26.170Z,33.97
2023-10-19T17:22:55.093Z,34.10
2023-10-19T17:25:25.353Z,33.90
2023-10-19T17:27:54.077Z,33.65
2023-10-19T17:30:22.676Z,32.70
2023-10-19T17:32:54.394Z,32.88
2023-10-19T17:35:25.070Z,34.22
2023-10-19T17:37:53.596Z,33.65
2023-10-19T17:40:22.137Z,32.80
2023-10-19T17:42:52.769Z,33.15
2023-10-19T17:45:21.312Z,33.50
2023-10-19T17:47:51.502Z,34.83
2023-10-19T17:50:21.160Z,32.63
2023-10-19T17:52:50.205Z,31.90
2023-10-19T17:55:21.701Z,31.80
2023-10-19T17:57:54.220Z,33.00
2023-10-19T18:00:22.825Z,33.25
2023-10-19T18:02:52.699Z,32.70
2023-10-19T18:05:22.066Z,32.13
2023-10-19T18:07:53.920Z,32.72
2023-10-19T18:10:29.765Z,31.73
2023-10-19T18:12:59.888Z,30.60
2023-10-19T18:15:28.749Z,29.55
2023-10-19T18:17:57.211Z,30.17
2023-10-19T18:20:25.695Z,28.92
2023-10-19T18:22:54.165Z,29.90
2023-10-19T18:25:24.844Z,31.27
2023-10-19T18:27:53.288Z,29.98
2023-10-19T18:30:23.613Z,30.88
2023-10-19T18:32:53.275Z,31.35
2023-10-19T18:35:21.875Z,31.10
2023-10-19T18:37:50.597Z,31.23
2023-10-19T18:40:21.521Z,31.77
2023-10-19T18:42:49.884Z,30.80
2023-10-19T18:45:19.325Z,31.00
2023-10-19T18:47:49.597Z,32.47
2023-10-19T18:50:33.675Z,32.08
2023-10-19T18:53:04.865Z,30.88
2023-10-19T18:55:33.841Z,33.17
2023-10-19T18:58:03.922Z,33.40
2023-10-19T19:00:34.233Z,31.75
2023-10-19T19:03:04.742Z,31.02
2023-10-19T19:05:34.277Z,31.70
2023-10-19T19:08:02.809Z,32.35
2023-10-19T19:10:34.411Z,30.75
2023-10-19T19:13:03.370Z,31.40
2023-10-19T19:15:32.985Z,30.83
2023-10-19T19:18:02.429Z,31.80
2023-10-19T19:20:32.433Z,30.83
2023-10-19T19:23:00.888Z,31.65
2023-10-19T19:25:29.294Z,29.85
2023-10-19T19:27:59.444Z,27.17
2023-10-19T19:30:28.435Z,27.55
2023-10-19T19:32:56.887Z,28.05
2023-10-19T19:35:25.470Z,29.17
2023-10-19T19:37:56.690Z,26.50
2023-10-19T19:40:26.372Z,28.85
2023-10-19T19:42:55.234Z,26.58
2023-10-19T19:45:24.150Z,27.20
2023-10-19T19:47:54.453Z,28.80
2023-10-19T19:50:23.556Z,29.65
2023-10-19T19:52:53.366Z,28.88
2023-10-19T19:55:23.671Z,27.40
2023-10-19T19:57:52.495Z,29.45
2023-10-19T20:00:23.544Z,30.02
2023-10-19T20:02:52.710Z,28.17
2023-10-19T20:05:22.792Z,27.67
2023-10-19T20:07:52.063Z,27.83
2023-10-19T20:10:20.697Z,30.70
2023-10-19T20:12:50.553Z,31.30
2023-10-19T20:15:19.217Z,30.20
2023-10-19T20:17:48.039Z,31.48
2023-10-19T20:20:18.231Z,32.05
2023-10-19T20:22:47.072Z,30.15
2023-10-19T20:25:16.125Z,29.90
2023-10-19T20:27:45.594Z,31.00
2023-10-19T20:30:17.253Z,30.73
2023-10-19T20:32:47.329Z,30.13
2023-10-19T20:35:18.890Z,29.60
2023-10-19T20:37:47.970Z,30.58
2023-10-19T20:40:22.472Z,29.17
2023-10-19T20:42:54.370Z,30.40
2023-10-19T20:45:27.065Z,29.90
2023-10-19T20:47:57.572Z,30.20
2023-10-19T20:50:28.800Z,31.45
2023-10-19T20:53:00.861Z,30.90
2023-10-19T20:55:29.825Z,29.48
2023-10-19T20:57:58.302Z,30.13
2023-10-19T21:00:28.413Z,29.70
2023-10-19T21:02:56.982Z,27.33
2023-10-19T21:05:26.419Z,28.70
2023-10-19T21:07:56.757Z,28.52
2023-10-19T21:10:25.424Z,28.17
2023-10-19T21:12:53.920Z,27.13
2023-10-19T21:15:22.590Z,26.77
2023-10-19T21:17:54.380Z,26.40
2023-10-19T21:20:23.385Z,27.35
2023-10-19T21:22:54.129Z,27.25
2023-10-19T21:25:25.658Z,26.75
2023-10-19T21:27:55.799Z,27.00
2023-10-19T21:30:24.436Z,28.77
2023-10-19T21:32:54.280Z,26.65
2023-10-19T21:35:22.898Z,25.67
2023-10-19T21:37:52.138Z,26.05
2023-10-19T21:40:20.775Z,26.48
2023-10-19T21:42:49.088Z,27.15
2023-10-19T21:45:17.641Z,26.40
2023-10-19T21:47:46.300Z,26.48
2023-10-19T21:50:16.539Z,29.45
2023-10-19T21:52:45.023Z,28.00
2023-10-19T21:55:13.631Z,29.05
2023-10-19T21:57:42.814Z,30.02
2023-10-19T22:00:16.352Z,28.20
2023-10-19T22:05:25.658Z,28.52
2023-10-19T22:07:54.769Z,29.60
2023-10-19T22:10:24.480Z,30.45
2023-10-19T22:12:53.610Z,29.60
2023-10-19T22:15:22.643Z,31.38
2023-10-19T22:17:51.952Z,30.90
2023-10-19T22:20:22.400Z,30.50
2023-10-19T22:22:51.483Z,32.85
2023-10-19T22:25:22.434Z,31.67
2023-10-19T22:27:53.429Z,31.92
2023-10-19T22:30:23.293Z,31.70
2023-10-19T22:32:52.529Z,32.40
2023-10-19T22:35:22.410Z,31.92
2023-10-19T22:37:51.871Z,32.88
2023-10-19T22:40:21.017Z,30.48
2023-10-19T22:42:49.801Z,28.55
2023-10-19T22:45:19.877Z,28.45
2023-10-19T22:47:48.794Z,27.92
2023-10-19T22:50:18.802Z,30.67
2023-10-19T22:52:48.805Z,30.65
2023-10-19T22:55:19.235Z,32.00
2023-10-19T22:57:52.526Z,30.70
2023-10-19T23:00:21.444Z,31.48
2023-10-19T23:02:50.976Z,31.37
2023-10-19T23:05:20.144Z,32.43
2023-10-19T23:07:52.564Z,30.53
2023-10-19T23:10:22.673Z,31.80
2023-10-19T23:12:52.350Z,33.73
2023-10-19T23:15:32.299Z,34.07
2023-10-19T23:18:01.532Z,31.20
2023-10-19T23:20:31.343Z,31.40
2023-10-19T23:23:05.299Z,33.00
2023-10-19T23:25:35.454Z,34.07
2023-10-19T23:28:06.401Z,34.63
2023-10-19T23:30:36.748Z,33.50
2023-10-19T23:33:08.643Z,32.08
2023-10-19T23:35:37.786Z,31.87
2023-10-19T23:38:08.719Z,32.43
2023-10-19T23:40:37.327Z,32.53
2023-10-19T23:43:07.512Z,30.37
2023-10-19T23:45:40.098Z,29.87
2023-10-19T23:48:12.121Z,29.67
2023-10-19T23:50:40.829Z,26.98
2023-10-19T23:53:11.684Z,28.13
2023-10-19T23:55:41.964Z,26.97
2023-10-19T23:58:10.664Z,26.73
